Time,TemperatureF,DewpointF,PressureIn,WindDirection,WindDirectionDegrees,WindSpeedMPH,WindSpeedGustMPH,Humidity,HourlyPrecipIn,Conditions,Clouds,dailyrainin,SolarRadiationWatts/m^2,SoftwareType,DateUTC
2013-03-16 00:03:00,66.0,58.0,-100.00,NE,56,5.0,10.0,75,0.00,,,0.00,0.000000,,2013-03-16 04:03:00,
2013-03-16 00:13:00,66.0,58.0,-100.00,NE,56,5.0,10.0,75,0.00,,,0.00,0.000000,,2013-03-16 04:13:00,
2013-03-16 00:23:00,66.0,58.0,-100.00,NE,56,5.0,10.0,75,0.00,,,0.00,0.000000,,2013-03-16 04:23:00,
2013-03-16 00:33:00,66.0,58.0,-100.00,NE,56,5.0,10.0,75,0.00,,,0.00,0.000000,,2013-03-16 04:33:00,
2013-03-16 01:03:00,64.0,56.0,-100.00,NNE,19,5.0,12.0,75,0.00,,,0.00,0.000000,,2013-03-16 05:03:00,
2013-03-16 01:12:00,64.0,56.0,-100.00,NNE,19,5.0,12.0,75,0.00,,,0.00,0.000000,,2013-03-16 05:12:00,
2013-03-16 01:22:00,64.0,56.0,-100.00,NNE,19,5.0,12.0,75,0.00,,,0.00,0.000000,,2013-03-16 05:22:00,
2013-03-16 01:32:00,64.0,56.0,-100.00,NNE,19,5.0,12.0,75,0.00,,,0.00,0.000000,,2013-03-16 05:32:00,
2013-03-16 09:03:00,-999.0,-99.9,-100.00,NE,47,7.0,-999.0,-999,-99.99,,,0.00,,,2013-03-16 13:03:00,
2013-03-16 09:12:00,-999.0,-99.9,-100.00,NE,47,7.0,-999.0,-999,-99.99,,,0.00,,,2013-03-16 13:12:00,
2013-03-16 09:23:00,-999.0,-99.9,-100.00,NE,47,7.0,-999.0,-999,-99.99,,,0.00,,,2013-03-16 13:23:00,
2013-03-16 09:32:00,-999.0,-99.9,-100.00,NE,47,7.0,-999.0,-999,-99.99,,,0.00,,,2013-03-16 13:32:00,
2013-03-16 10:03:00,69.0,58.0,-100.00,NE,52,7.0,12.0,68,0.00,,,0.00,204.000000,,2013-03-16 14:03:00,
2013-03-16 10:12:00,69.0,58.0,-100.00,NE,52,7.0,12.0,68,0.00,,,0.00,204.000000,,2013-03-16 14:12:00,
2013-03-16 10:22:00,69.0,58.0,-100.00,NE,52,7.0,12.0,68,0.00,,,0.00,204.000000,,2013-03-16 14:22:00,
2013-03-16 10:32:00,69.0,58.0,-100.00,NE,52,7.0,12.0,68,0.00,,,0.00,204.000000,,2013-03-16 14:32:00,
2013-03-16 11:03:00,72.0,57.0,-100.00,NE,50,7.0,14.0,60,0.00,,,0.00,502.000000,,2013-03-16 15:03:00,
2013-03-16 11:13:00,72.0,57.0,-100.00,NE,50,7.0,14.0,60,0.00,,,0.00,502.000000,,2013-03-16 15:13:00,
2013-03-16 11:23:00,72.0,57.0,-100.00,NE,50,7.0,14.0,60,0.00,,,0.00,502.000000,,2013-03-16 15:23:00,
2013-03-16 11:33:00,72.0,57.0,-100.00,NE,50,7.0,14.0,60,0.00,,,0.00,502.000000,,2013-03-16 15:33:00,
2013-03-16 12:03:00,73.0,56.0,-100.00,NE,56,6.0,12.0,55,0.00,,,0.00,661.000000,,2013-03-16 16:03:00,
2013-03-16 12:13:00,73.0,56.0,-100.00,NE,56,6.0,12.0,55,0.00,,,0.00,661.000000,,2013-03-16 16:13:00,
2013-03-16 12:23:00,73.0,56.0,-100.00,NE,56,6.0,12.0,55,0.00,,,0.00,661.000000,,2013-03-16 16:23:00,
2013-03-16 12:33:00,73.0,56.0,-100.00,NE,56,6.0,12.0,55,0.00,,,0.00,661.000000,,2013-03-16 16:33:00,
2013-03-16 12:53:00,74.0,54.0,-100.00,ENE,64,8.0,13.0,49,0.00,,,0.00,801.000000,,2013-03-16 16:53:00,
2013-03-16 13:03:00,74.0,54.0,-100.00,ENE,64,8.0,13.0,49,0.00,,,0.00,801.000000,,2013-03-16 17:03:00,
2013-03-16 13:13:00,74.0,54.0,-100.00,ENE,64,8.0,13.0,49,0.00,,,0.00,801.000000,,2013-03-16 17:13:00,
2013-03-16 13:23:00,74.0,54.0,-100.00,ENE,64,8.0,13.0,49,0.00,,,0.00,801.000000,,2013-03-16 17:23:00,
2013-03-16 13:33:00,74.0,54.0,-100.00,ENE,64,8.0,13.0,49,0.00,,,0.00,801.000000,,2013-03-16 17:33:00,
2013-03-16 14:03:00,75.0,53.0,-100.00,ENE,67,7.0,13.0,47,0.00,,,0.00,771.000000,,2013-03-16 18:03:00,
2013-03-16 14:13:00,75.0,53.0,-100.00,ENE,67,7.0,13.0,47,0.00,,,0.00,771.000000,,2013-03-16 18:13:00,
2013-03-16 14:23:00,75.0,53.0,-100.00,ENE,67,7.0,13.0,47,0.00,,,0.00,771.000000,,2013-03-16 18:23:00,
2013-03-16 14:33:00,75.0,53.0,-100.00,ENE,67,7.0,13.0,47,0.00,,,0.00,771.000000,,2013-03-16 18:33:00,
2013-03-16 15:02:00,75.0,53.0,-100.00,ENE,64,8.0,14.0,47,0.00,,,0.00,817.000000,,2013-03-16 19:02:00,
2013-03-16 15:12:00,75.0,53.0,-100.00,ENE,64,8.0,14.0,47,0.00,,,0.00,817.000000,,2013-03-16 19:12:00,
2013-03-16 15:22:00,75.0,53.0,-100.00,ENE,64,8.0,14.0,47,0.00,,,0.00,817.000000,,2013-03-16 19:22:00,
2013-03-16 15:33:00,75.0,53.0,-100.00,ENE,64,8.0,14.0,47,0.00,,,0.00,817.000000,,2013-03-16 19:33:00,
2013-03-16 16:03:00,74.0,54.0,-100.00,ENE,73,7.0,12.0,50,0.00,,,0.00,665.000000,,2013-03-16 20:03:00,
2013-03-16 16:13:00,74.0,54.0,-100.00,ENE,73,7.0,12.0,50,0.00,,,0.00,665.000000,,2013-03-16 20:13:00,
2013-03-16 16:22:00,74.0,54.0,-100.00,ENE,73,7.0,12.0,50,0.00,,,0.00,665.000000,,2013-03-16 20:22:00,
2013-03-16 16:33:00,74.0,54.0,-100.00,ENE,73,7.0,12.0,50,0.00,,,0.00,665.000000,,2013-03-16 20:33:00,
2013-03-16 17:02:00,75.0,56.0,-100.00,ENE,73,7.0,13.0,52,0.00,,,0.00,516.000000,,2013-03-16 21:02:00,
2013-03-16 17:12:00,75.0,56.0,-100.00,ENE,73,7.0,13.0,52,0.00,,,0.00,516.000000,,2013-03-16 21:12:00,
2013-03-16 17:23:00,75.0,56.0,-100.00,ENE,73,7.0,13.0,52,0.00,,,0.00,516.000000,,2013-03-16 21:23:00,
2013-03-16 17:33:00,75.0,56.0,-100.00,ENE,73,7.0,13.0,52,0.00,,,0.00,516.000000,,2013-03-16 21:33:00,
2013-03-16 18:03:00,74.0,53.0,-100.00,SE,142,7.0,14.0,48,0.00,,,0.00,322.000000,,2013-03-16 22:03:00,
2013-03-16 18:13:00,74.0,53.0,-100.00,SE,142,7.0,14.0,48,0.00,,,0.00,322.000000,,2013-03-16 22:13:00,
2013-03-16 18:23:00,74.0,53.0,-100.00,SE,142,7.0,14.0,48,0.00,,,0.00,322.000000,,2013-03-16 22:23:00,
2013-03-16 18:33:00,74.0,53.0,-100.00,SE,142,7.0,14.0,48,0.00,,,0.00,322.000000,,2013-03-16 22:33:00,
2013-03-16 19:03:00,72.0,55.0,-100.00,East,100,6.0,12.0,56,0.00,,,0.00,181.000000,,2013-03-16 23:03:00,
2013-03-16 19:13:00,72.0,55.0,-100.00,East,100,6.0,12.0,56,0.00,,,0.00,181.000000,,2013-03-16 23:13:00,
2013-03-16 19:23:00,72.0,55.0,-100.00,East,100,6.0,12.0,56,0.00,,,0.00,181.000000,,2013-03-16 23:23:00,
2013-03-16 19:33:00,72.0,55.0,-100.00,East,100,6.0,12.0,56,0.00,,,0.00,181.000000,,2013-03-16 23:33:00,
2013-03-16 20:02:00,68.0,56.0,-100.00,ESE,105,4.0,10.0,65,0.00,,,0.00,49.000000,,2013-03-17 00:02:00,
2013-03-16 20:13:00,68.0,56.0,-100.00,ESE,105,4.0,10.0,65,0.00,,,0.00,49.000000,,2013-03-17 00:13:00,
2013-03-16 20:23:00,68.0,56.0,-100.00,ESE,105,4.0,10.0,65,0.00,,,0.00,49.000000,,2013-03-17 00:23:00,
2013-03-16 20:33:00,68.0,56.0,-100.00,ESE,105,4.0,10.0,65,0.00,,,0.00,49.000000,,2013-03-17 00:33:00,
2013-03-16 21:03:00,67.0,56.0,-100.00,East,96,4.0,8.0,68,0.00,,,0.00,0.000000,,2013-03-17 01:03:00,
2013-03-16 21:12:00,67.0,56.0,-100.00,East,96,4.0,8.0,68,0.00,,,0.00,0.000000,,2013-03-17 01:12:00,
2013-03-16 21:22:00,67.0,56.0,-100.00,East,96,4.0,8.0,68,0.00,,,0.00,0.000000,,2013-03-17 01:22:00,
2013-03-16 21:32:00,67.0,56.0,-100.00,East,96,4.0,8.0,68,0.00,,,0.00,0.000000,,2013-03-17 01:32:00,
2013-03-16 22:03:00,68.0,59.0,-100.00,East,85,5.0,9.0,72,0.00,,,0.00,0.000000,,2013-03-17 02:03:00,
2013-03-16 22:13:00,68.0,59.0,-100.00,East,85,5.0,9.0,72,0.00,,,0.00,0.000000,,2013-03-17 02:13:00,
2013-03-16 22:23:00,68.0,59.0,-100.00,East,85,5.0,9.0,72,0.00,,,0.00,0.000000,,2013-03-17 02:23:00,
2013-03-16 22:33:00,68.0,59.0,-100.00,East,85,5.0,9.0,72,0.00,,,0.00,0.000000,,2013-03-17 02:33:00,
2013-03-16 23:03:00,66.0,58.0,-100.00,SE,125,3.0,7.0,76,0.00,,,0.00,0.000000,,2013-03-17 03:03:00,
2013-03-16 23:12:00,66.0,58.0,-100.00,SE,125,3.0,7.0,76,0.00,,,0.00,0.000000,,2013-03-17 03:12:00,
2013-03-16 23:23:00,66.0,58.0,-100.00,SE,125,3.0,7.0,76,0.00,,,0.00,0.000000,,2013-03-17 03:23:00,
2013-03-16 23:34:00,66.0,58.0,-100.00,SE,125,3.0,7.0,76,0.00,,,0.00,0.000000,,2013-03-17 03:34:00,